sensor_id;sensor_type;location;lat;lon;timestamp;P1;durP1;ratioP1;P2;durP2;ratioP2
79638;SDS011;69114;49.108;8.280;2023-06-22T00:01:44;10.33;;;7.03;;
79638;SDS011;69114;49.108;8.280;2023-06-22T00:04:10;9.27;;;6.47;;
79638;SDS011;69114;49.108;8.280;2023-06-22T00:06:35;8.60;;;6.70;;
79638;SDS011;69114;49.108;8.280;2023-06-22T00:09:00;7.70;;;6.33;;
79638;SDS011;69114;49.108;8.280;2023-06-22T00:11:25;10.33;;;6.40;;
79638;SDS011;69114;49.108;8.280;2023-06-22T00:13:51;8.27;;;6.63;;
79638;SDS011;69114;49.108;8.280;2023-06-22T00:16:16;8.07;;;6.70;;
79638;SDS011;69114;49.108;8.280;2023-06-22T00:18:41;7.77;;;6.97;;
79638;SDS011;69114;49.108;8.280;2023-06-22T00:21:12;9.20;;;7.32;;
79638;SDS011;69114;49.108;8.280;2023-06-22T00:23:37;8.48;;;7.13;;
79638;SDS011;69114;49.108;8.280;2023-06-22T00:26:02;11.37;;;7.37;;
79638;SDS011;69114;49.108;8.280;2023-06-22T00:28:27;8.40;;;6.80;;
79638;SDS011;69114;49.108;8.280;2023-06-22T00:30:54;9.35;;;6.75;;
79638;SDS011;69114;49.108;8.280;2023-06-22T00:33:19;18.60;;;9.97;;
79638;SDS011;69114;49.108;8.280;2023-06-22T00:35:44;15.30;;;9.30;;
79638;SDS011;69114;49.108;8.280;2023-06-22T00:38:09;16.30;;;8.63;;
79638;SDS011;69114;49.108;8.280;2023-06-22T00:40:35;13.77;;;9.67;;
79638;SDS011;69114;49.108;8.280;2023-06-22T00:43:00;14.20;;;10.18;;
79638;SDS011;69114;49.108;8.280;2023-06-22T00:45:26;17.63;;;11.37;;
79638;SDS011;69114;49.108;8.280;2023-06-22T00:47:56;14.95;;;10.52;;
79638;SDS011;69114;49.108;8.280;2023-06-22T00:50:21;11.90;;;8.45;;
79638;SDS011;69114;49.108;8.280;2023-06-22T00:53:06;12.75;;;8.70;;
79638;SDS011;69114;49.108;8.280;2023-06-22T00:55:38;11.75;;;8.95;;
79638;SDS011;69114;49.108;8.280;2023-06-22T00:58:06;15.43;;;10.40;;
79638;SDS011;69114;49.108;8.280;2023-06-22T01:00:35;17.20;;;11.27;;
79638;SDS011;69114;49.108;8.280;2023-06-22T01:03:01;12.50;;;8.52;;
79638;SDS011;69114;49.108;8.280;2023-06-22T01:05:26;12.73;;;7.88;;
79638;SDS011;69114;49.108;8.280;2023-06-22T01:08:00;13.77;;;8.57;;
79638;SDS011;69114;49.108;8.280;2023-06-22T01:13:16;15.38;;;9.85;;
79638;SDS011;69114;49.108;8.280;2023-06-22T01:15:44;16.00;;;11.25;;
79638;SDS011;69114;49.108;8.280;2023-06-22T01:18:11;15.02;;;11.05;;
79638;SDS011;69114;49.108;8.280;2023-06-22T01:20:37;17.00;;;11.40;;
79638;SDS011;69114;49.108;8.280;2023-06-22T01:23:10;14.57;;;9.35;;
79638;SDS011;69114;49.108;8.280;2023-06-22T01:25:45;15.73;;;10.15;;
79638;SDS011;69114;49.108;8.280;2023-06-22T01:30:54;14.02;;;10.35;;
79638;SDS011;69114;49.108;8.280;2023-06-22T01:33:33;13.60;;;9.48;;
79638;SDS011;69114;49.108;8.280;2023-06-22T01:36:00;13.35;;;9.27;;
79638;SDS011;69114;49.108;8.280;2023-06-22T01:38:25;11.25;;;8.63;;
79638;SDS011;69114;49.108;8.280;2023-06-22T01:40:51;13.15;;;8.52;;
79638;SDS011;69114;49.108;8.280;2023-06-22T01:43:17;13.07;;;9.55;;
79638;SDS011;69114;49.108;8.280;2023-06-22T01:45:42;18.00;;;12.02;;
79638;SDS011;69114;49.108;8.280;2023-06-22T01:48:08;15.40;;;11.53;;
79638;SDS011;69114;49.108;8.280;2023-06-22T01:50:33;15.77;;;10.70;;
79638;SDS011;69114;49.108;8.280;2023-06-22T01:52:58;17.90;;;11.70;;
79638;SDS011;69114;49.108;8.280;2023-06-22T01:55:23;15.00;;;10.93;;
79638;SDS011;69114;49.108;8.280;2023-06-22T01:57:48;16.13;;;11.80;;
79638;SDS011;69114;49.108;8.280;2023-06-22T02:00:15;16.92;;;11.52;;
79638;SDS011;69114;49.108;8.280;2023-06-22T02:02:45;13.35;;;9.68;;
79638;SDS011;69114;49.108;8.280;2023-06-22T02:05:12;12.90;;;8.95;;
79638;SDS011;69114;49.108;8.280;2023-06-22T02:07:49;14.30;;;10.02;;
79638;SDS011;69114;49.108;8.280;2023-06-22T02:10:19;16.73;;;10.98;;
79638;SDS011;69114;49.108;8.280;2023-06-22T02:12:44;18.60;;;11.85;;
79638;SDS011;69114;49.108;8.280;2023-06-22T02:15:10;18.60;;;12.77;;
79638;SDS011;69114;49.108;8.280;2023-06-22T02:17:37;19.33;;;12.02;;
79638;SDS011;69114;49.108;8.280;2023-06-22T02:20:03;15.83;;;11.67;;
79638;SDS011;69114;49.108;8.280;2023-06-22T02:22:33;16.83;;;12.38;;
79638;SDS011;69114;49.108;8.280;2023-06-22T02:24:59;19.55;;;13.77;;
79638;SDS011;69114;49.108;8.280;2023-06-22T02:27:24;22.20;;;13.13;;
79638;SDS011;69114;49.108;8.280;2023-06-22T02:29:49;20.07;;;13.10;;
79638;SDS011;69114;49.108;8.280;2023-06-22T02:32:15;18.27;;;13.03;;
79638;SDS011;69114;49.108;8.280;2023-06-22T02:34:42;16.40;;;11.88;;
79638;SDS011;69114;49.108;8.280;2023-06-22T02:37:07;19.85;;;13.48;;
79638;SDS011;69114;49.108;8.280;2023-06-22T02:39:33;21.13;;;14.60;;
79638;SDS011;69114;49.108;8.280;2023-06-22T02:41:58;19.43;;;12.97;;
79638;SDS011;69114;49.108;8.280;2023-06-22T02:44:23;18.50;;;12.10;;
79638;SDS011;69114;49.108;8.280;2023-06-22T02:46:48;18.20;;;11.40;;
79638;SDS011;69114;49.108;8.280;2023-06-22T02:49:14;22.10;;;12.27;;
79638;SDS011;69114;49.108;8.280;2023-06-22T02:51:41;24.40;;;14.97;;
79638;SDS011;69114;49.108;8.280;2023-06-22T02:54:06;18.60;;;12.23;;
79638;SDS011;69114;49.108;8.280;2023-06-22T02:56:31;15.37;;;10.33;;
79638;SDS011;69114;49.108;8.280;2023-06-22T02:58:57;17.80;;;11.55;;
79638;SDS011;69114;49.108;8.280;2023-06-22T03:01:28;23.23;;;14.13;;
79638;SDS011;69114;49.108;8.280;2023-06-22T03:03:55;15.30;;;10.90;;
79638;SDS011;69114;49.108;8.280;2023-06-22T03:06:20;17.30;;;13.30;;
79638;SDS011;69114;49.108;8.280;2023-06-22T03:08:48;19.38;;;12.05;;
79638;SDS011;69114;49.108;8.280;2023-06-22T03:11:14;20.98;;;13.32;;
79638;SDS011;69114;49.108;8.280;2023-06-22T03:13:39;19.93;;;13.07;;
79638;SDS011;69114;49.108;8.280;2023-06-22T03:16:04;20.67;;;12.63;;
79638;SDS011;69114;49.108;8.280;2023-06-22T03:18:29;15.43;;;11.63;;
79638;SDS011;69114;49.108;8.280;2023-06-22T03:20:54;17.93;;;12.20;;
79638;SDS011;69114;49.108;8.280;2023-06-22T03:23:20;17.97;;;11.70;;
79638;SDS011;69114;49.108;8.280;2023-06-22T03:25:45;16.53;;;12.37;;
79638;SDS011;69114;49.108;8.280;2023-06-22T03:28:10;19.33;;;12.90;;
79638;SDS011;69114;49.108;8.280;2023-06-22T03:30:35;16.93;;;12.03;;
79638;SDS011;69114;49.108;8.280;2023-06-22T03:33:01;17.37;;;12.53;;
79638;SDS011;69114;49.108;8.280;2023-06-22T03:35:26;20.57;;;12.90;;
79638;SDS011;69114;49.108;8.280;2023-06-22T03:37:51;25.67;;;14.48;;
79638;SDS011;69114;49.108;8.280;2023-06-22T03:40:16;18.40;;;13.73;;
79638;SDS011;69114;49.108;8.280;2023-06-22T03:42:42;22.63;;;14.57;;
79638;SDS011;69114;49.108;8.280;2023-06-22T03:45:07;18.47;;;12.43;;
79638;SDS011;69114;49.108;8.280;2023-06-22T03:47:32;20.77;;;13.05;;
79638;SDS011;69114;49.108;8.280;2023-06-22T03:49:58;17.20;;;12.55;;
79638;SDS011;69114;49.108;8.280;2023-06-22T03:52:23;16.00;;;11.30;;
79638;SDS011;69114;49.108;8.280;2023-06-22T03:54:50;15.07;;;11.35;;
79638;SDS011;69114;49.108;8.280;2023-06-22T03:57:15;17.53;;;10.80;;
79638;SDS011;69114;49.108;8.280;2023-06-22T03:59:40;18.57;;;11.17;;
79638;SDS011;69114;49.108;8.280;2023-06-22T04:02:05;15.03;;;11.07;;
79638;SDS011;69114;49.108;8.280;2023-06-22T04:04:31;21.23;;;12.63;;
79638;SDS011;69114;49.108;8.280;2023-06-22T04:06:56;16.30;;;12.03;;
79638;SDS011;69114;49.108;8.280;2023-06-22T04:09:21;17.83;;;10.67;;
79638;SDS011;69114;49.108;8.280;2023-06-22T04:11:46;21.77;;;12.95;;
79638;SDS011;69114;49.108;8.280;2023-06-22T04:14:12;17.13;;;11.57;;
79638;SDS011;69114;49.108;8.280;2023-06-22T04:16:37;17.47;;;11.47;;
79638;SDS011;69114;49.108;8.280;2023-06-22T04:19:02;17.87;;;12.43;;
79638;SDS011;69114;49.108;8.280;2023-06-22T04:21:27;18.97;;;13.67;;
79638;SDS011;69114;49.108;8.280;2023-06-22T04:23:52;19.80;;;12.43;;
79638;SDS011;69114;49.108;8.280;2023-06-22T04:26:18;19.97;;;12.87;;
79638;SDS011;69114;49.108;8.280;2023-06-22T04:28:45;21.35;;;12.95;;
79638;SDS011;69114;49.108;8.280;2023-06-22T04:31:16;22.23;;;14.35;;
79638;SDS011;69114;49.108;8.280;2023-06-22T04:33:41;21.92;;;14.63;;
79638;SDS011;69114;49.108;8.280;2023-06-22T04:36:07;26.73;;;16.93;;
79638;SDS011;69114;49.108;8.280;2023-06-22T04:38:32;23.40;;;15.50;;
79638;SDS011;69114;49.108;8.280;2023-06-22T04:41:02;21.27;;;14.77;;
79638;SDS011;69114;49.108;8.280;2023-06-22T04:43:28;29.13;;;15.82;;
79638;SDS011;69114;49.108;8.280;2023-06-22T04:45:56;17.85;;;13.23;;
79638;SDS011;69114;49.108;8.280;2023-06-22T04:48:28;19.75;;;13.18;;
79638;SDS011;69114;49.108;8.280;2023-06-22T04:50:57;17.42;;;11.68;;
79638;SDS011;69114;49.108;8.280;2023-06-22T04:53:28;15.93;;;11.75;;
79638;SDS011;69114;49.108;8.280;2023-06-22T04:55:55;20.75;;;11.57;;
79638;SDS011;69114;49.108;8.280;2023-06-22T04:58:20;19.58;;;12.63;;
79638;SDS011;69114;49.108;8.280;2023-06-22T05:00:46;16.73;;;11.07;;
79638;SDS011;69114;49.108;8.280;2023-06-22T05:03:11;18.83;;;12.52;;
79638;SDS011;69114;49.108;8.280;2023-06-22T05:05:36;18.97;;;12.27;;
79638;SDS011;69114;49.108;8.280;2023-06-22T05:08:02;20.58;;;12.15;;
79638;SDS011;69114;49.108;8.280;2023-06-22T05:10:27;17.55;;;11.32;;
79638;SDS011;69114;49.108;8.280;2023-06-22T05:12:53;19.93;;;12.37;;
79638;SDS011;69114;49.108;8.280;2023-06-22T05:15:18;20.30;;;11.87;;
79638;SDS011;69114;49.108;8.280;2023-06-22T05:17:47;17.13;;;13.15;;
79638;SDS011;69114;49.108;8.280;2023-06-22T05:20:12;20.13;;;13.57;;
79638;SDS011;69114;49.108;8.280;2023-06-22T05:22:38;20.63;;;13.23;;
79638;SDS011;69114;49.108;8.280;2023-06-22T05:25:05;18.75;;;12.65;;
79638;SDS011;69114;49.108;8.280;2023-06-22T05:27:31;19.42;;;12.05;;
79638;SDS011;69114;49.108;8.280;2023-06-22T05:29:56;17.13;;;11.27;;
79638;SDS011;69114;49.108;8.280;2023-06-22T05:32:21;16.83;;;11.57;;
79638;SDS011;69114;49.108;8.280;2023-06-22T05:34:46;16.20;;;12.20;;
79638;SDS011;69114;49.108;8.280;2023-06-22T05:37:12;14.27;;;11.17;;
79638;SDS011;69114;49.108;8.280;2023-06-22T05:39:37;13.70;;;9.85;;
79638;SDS011;69114;49.108;8.280;2023-06-22T05:42:04;13.55;;;9.98;;
79638;SDS011;69114;49.108;8.280;2023-06-22T05:44:29;13.77;;;9.60;;
79638;SDS011;69114;49.108;8.280;2023-06-22T05:46:54;13.17;;;10.17;;
79638;SDS011;69114;49.108;8.280;2023-06-22T05:49:20;13.13;;;9.27;;
79638;SDS011;69114;49.108;8.280;2023-06-22T05:51:47;15.50;;;9.55;;
79638;SDS011;69114;49.108;8.280;2023-06-22T05:54:12;13.33;;;9.50;;
79638;SDS011;69114;49.108;8.280;2023-06-22T05:56:38;13.57;;;8.82;;
79638;SDS011;69114;49.108;8.280;2023-06-22T05:59:04;12.30;;;8.52;;
79638;SDS011;69114;49.108;8.280;2023-06-22T06:01:29;16.45;;;9.35;;
79638;SDS011;69114;49.108;8.280;2023-06-22T06:06:24;12.30;;;8.77;;
79638;SDS011;69114;49.108;8.280;2023-06-22T06:08:53;13.85;;;8.73;;
79638;SDS011;69114;49.108;8.280;2023-06-22T06:11:18;14.37;;;10.30;;
79638;SDS011;69114;49.108;8.280;2023-06-22T06:13:43;14.77;;;8.43;;
79638;SDS011;69114;49.108;8.280;2023-06-22T06:16:08;15.33;;;9.80;;
79638;SDS011;69114;49.108;8.280;2023-06-22T06:18:34;12.63;;;9.30;;
79638;SDS011;69114;49.108;8.280;2023-06-22T06:20:59;12.53;;;9.07;;
79638;SDS011;69114;49.108;8.280;2023-06-22T06:23:24;11.97;;;9.23;;
79638;SDS011;69114;49.108;8.280;2023-06-22T06:25:49;13.53;;;8.93;;
79638;SDS011;69114;49.108;8.280;2023-06-22T06:28:14;13.33;;;8.97;;
79638;SDS011;69114;49.108;8.280;2023-06-22T06:30:40;13.40;;;9.37;;
79638;SDS011;69114;49.108;8.280;2023-06-22T06:33:06;14.90;;;8.75;;
79638;SDS011;69114;49.108;8.280;2023-06-22T06:35:33;12.98;;;8.95;;
79638;SDS011;69114;49.108;8.280;2023-06-22T06:37:59;12.65;;;9.48;;
79638;SDS011;69114;49.108;8.280;2023-06-22T06:40:24;16.57;;;9.30;;
79638;SDS011;69114;49.108;8.280;2023-06-22T06:42:49;13.73;;;8.70;;
79638;SDS011;69114;49.108;8.280;2023-06-22T06:45:15;12.50;;;8.80;;
79638;SDS011;69114;49.108;8.280;2023-06-22T06:47:41;14.25;;;9.18;;
79638;SDS011;69114;49.108;8.280;2023-06-22T06:50:07;12.90;;;8.33;;
79638;SDS011;69114;49.108;8.280;2023-06-22T06:52:32;12.23;;;8.70;;
79638;SDS011;69114;49.108;8.280;2023-06-22T06:54:57;12.40;;;8.98;;
79638;SDS011;69114;49.108;8.280;2023-06-22T06:57:23;14.17;;;8.63;;
79638;SDS011;69114;49.108;8.280;2023-06-22T06:59:48;11.83;;;8.17;;
79638;SDS011;69114;49.108;8.280;2023-06-22T07:02:14;14.45;;;8.80;;
79638;SDS011;69114;49.108;8.280;2023-06-22T07:04:40;12.70;;;8.65;;
79638;SDS011;69114;49.108;8.280;2023-06-22T07:07:05;13.45;;;8.88;;
79638;SDS011;69114;49.108;8.280;2023-06-22T07:09:30;14.00;;;8.57;;
79638;SDS011;69114;49.108;8.280;2023-06-22T07:11:55;12.30;;;8.70;;
79638;SDS011;69114;49.108;8.280;2023-06-22T07:14:21;13.53;;;9.13;;
79638;SDS011;69114;49.108;8.280;2023-06-22T07:16:46;11.03;;;8.47;;
79638;SDS011;69114;49.108;8.280;2023-06-22T07:19:11;13.47;;;9.00;;
79638;SDS011;69114;49.108;8.280;2023-06-22T07:21:37;11.73;;;8.30;;
79638;SDS011;69114;49.108;8.280;2023-06-22T07:24:02;11.77;;;8.90;;
79638;SDS011;69114;49.108;8.280;2023-06-22T07:26:27;11.55;;;8.82;;
79638;SDS011;69114;49.108;8.280;2023-06-22T07:28:52;12.07;;;8.80;;
79638;SDS011;69114;49.108;8.280;2023-06-22T07:31:18;13.80;;;9.27;;
79638;SDS011;69114;49.108;8.280;2023-06-22T07:33:43;13.73;;;9.07;;
79638;SDS011;69114;49.108;8.280;2023-06-22T07:36:08;9.77;;;7.60;;
79638;SDS011;69114;49.108;8.280;2023-06-22T07:38:33;12.43;;;7.80;;
79638;SDS011;69114;49.108;8.280;2023-06-22T07:41:00;10.88;;;7.90;;
79638;SDS011;69114;49.108;8.280;2023-06-22T07:43:25;15.10;;;8.50;;
79638;SDS011;69114;49.108;8.280;2023-06-22T07:45:50;11.37;;;8.53;;
79638;SDS011;69114;49.108;8.280;2023-06-22T07:48:22;9.82;;;8.25;;
79638;SDS011;69114;49.108;8.280;2023-06-22T07:50:47;13.10;;;7.93;;
79638;SDS011;69114;49.108;8.280;2023-06-22T07:53:13;9.98;;;7.32;;
79638;SDS011;69114;49.108;8.280;2023-06-22T07:55:38;9.83;;;7.70;;
79638;SDS011;69114;49.108;8.280;2023-06-22T07:58:03;12.13;;;8.10;;
79638;SDS011;69114;49.108;8.280;2023-06-22T08:00:28;12.57;;;8.60;;
79638;SDS011;69114;49.108;8.280;2023-06-22T08:02:54;12.43;;;8.02;;
79638;SDS011;69114;49.108;8.280;2023-06-22T08:05:19;10.53;;;7.30;;
79638;SDS011;69114;49.108;8.280;2023-06-22T08:07:44;14.17;;;8.60;;
79638;SDS011;69114;49.108;8.280;2023-06-22T08:10:10;13.60;;;7.60;;
79638;SDS011;69114;49.108;8.280;2023-06-22T08:12:35;12.48;;;8.20;;
79638;SDS011;69114;49.108;8.280;2023-06-22T08:15:01;11.90;;;7.13;;
79638;SDS011;69114;49.108;8.280;2023-06-22T08:17:26;10.70;;;7.72;;
79638;SDS011;69114;49.108;8.280;2023-06-22T08:19:51;10.57;;;7.37;;
79638;SDS011;69114;49.108;8.280;2023-06-22T08:22:17;11.80;;;7.50;;
79638;SDS011;69114;49.108;8.280;2023-06-22T08:24:42;9.38;;;7.57;;
79638;SDS011;69114;49.108;8.280;2023-06-22T08:27:08;14.77;;;8.13;;
79638;SDS011;69114;49.108;8.280;2023-06-22T08:29:40;10.35;;;7.50;;
79638;SDS011;69114;49.108;8.280;2023-06-22T08:32:10;12.15;;;8.07;;
79638;SDS011;69114;49.108;8.280;2023-06-22T08:34:36;9.40;;;6.88;;
79638;SDS011;69114;49.108;8.280;2023-06-22T08:37:01;10.25;;;7.40;;
79638;SDS011;69114;49.108;8.280;2023-06-22T08:39:26;9.70;;;8.23;;
79638;SDS011;69114;49.108;8.280;2023-06-22T08:41:52;8.70;;;7.32;;
79638;SDS011;69114;49.108;8.280;2023-06-22T08:44:18;12.38;;;7.32;;
79638;SDS011;69114;49.108;8.280;2023-06-22T08:46:43;11.57;;;7.25;;
79638;SDS011;69114;49.108;8.280;2023-06-22T08:49:08;11.60;;;7.57;;
79638;SDS011;69114;49.108;8.280;2023-06-22T08:51:34;13.68;;;7.93;;
79638;SDS011;69114;49.108;8.280;2023-06-22T08:54:00;10.90;;;7.10;;
79638;SDS011;69114;49.108;8.280;2023-06-22T08:56:25;10.80;;;7.33;;
79638;SDS011;69114;49.108;8.280;2023-06-22T08:58:50;13.70;;;7.00;;
79638;SDS011;69114;49.108;8.280;2023-06-22T09:01:15;12.33;;;8.17;;
79638;SDS011;69114;49.108;8.280;2023-06-22T09:03:41;11.57;;;7.67;;
79638;SDS011;69114;49.108;8.280;2023-06-22T09:06:06;11.05;;;7.32;;
79638;SDS011;69114;49.108;8.280;2023-06-22T09:08:34;9.20;;;7.38;;
79638;SDS011;69114;49.108;8.280;2023-06-22T09:10:59;11.67;;;7.07;;
79638;SDS011;69114;49.108;8.280;2023-06-22T09:13:24;10.90;;;7.77;;
79638;SDS011;69114;49.108;8.280;2023-06-22T09:15:49;9.02;;;7.18;;
79638;SDS011;69114;49.108;8.280;2023-06-22T09:18:15;11.77;;;7.43;;
79638;SDS011;69114;49.108;8.280;2023-06-22T09:20:40;10.70;;;7.87;;
79638;SDS011;69114;49.108;8.280;2023-06-22T09:23:06;9.23;;;6.73;;
79638;SDS011;69114;49.108;8.280;2023-06-22T09:25:31;8.87;;;7.07;;
79638;SDS011;69114;49.108;8.280;2023-06-22T09:27:56;8.77;;;6.47;;
79638;SDS011;69114;49.108;8.280;2023-06-22T09:30:21;11.90;;;7.47;;
79638;SDS011;69114;49.108;8.280;2023-06-22T09:32:47;11.03;;;6.60;;
79638;SDS011;69114;49.108;8.280;2023-06-22T09:35:12;9.93;;;6.70;;
79638;SDS011;69114;49.108;8.280;2023-06-22T09:37:38;8.52;;;6.30;;
79638;SDS011;69114;49.108;8.280;2023-06-22T09:40:04;9.20;;;7.25;;
79638;SDS011;69114;49.108;8.280;2023-06-22T09:42:37;8.77;;;5.90;;
79638;SDS011;69114;49.108;8.280;2023-06-22T09:45:03;10.15;;;7.07;;
79638;SDS011;69114;49.108;8.280;2023-06-22T09:47:29;10.38;;;7.15;;
79638;SDS011;69114;49.108;8.280;2023-06-22T09:49:54;10.30;;;7.55;;
79638;SDS011;69114;49.108;8.280;2023-06-22T09:52:20;9.90;;;7.05;;
79638;SDS011;69114;49.108;8.280;2023-06-22T09:54:45;10.23;;;6.57;;
79638;SDS011;69114;49.108;8.280;2023-06-22T09:57:11;8.70;;;6.97;;
79638;SDS011;69114;49.108;8.280;2023-06-22T09:59:36;11.30;;;7.38;;
79638;SDS011;69114;49.108;8.280;2023-06-22T10:02:01;11.15;;;6.95;;
79638;SDS011;69114;49.108;8.280;2023-06-22T10:04:27;9.75;;;6.97;;
79638;SDS011;69114;49.108;8.280;2023-06-22T10:06:52;13.10;;;7.63;;
79638;SDS011;69114;49.108;8.280;2023-06-22T10:09:17;8.77;;;6.50;;
79638;SDS011;69114;49.108;8.280;2023-06-22T10:11:42;10.43;;;7.10;;
79638;SDS011;69114;49.108;8.280;2023-06-22T10:14:07;8.93;;;6.77;;
79638;SDS011;69114;49.108;8.280;2023-06-22T10:16:33;10.63;;;6.87;;
79638;SDS011;69114;49.108;8.280;2023-06-22T10:18:58;7.90;;;6.47;;
79638;SDS011;69114;49.108;8.280;2023-06-22T10:21:23;9.25;;;7.10;;
79638;SDS011;69114;49.108;8.280;2023-06-22T10:23:49;9.70;;;6.70;;
79638;SDS011;69114;49.108;8.280;2023-06-22T10:26:14;9.57;;;6.70;;
79638;SDS011;69114;49.108;8.280;2023-06-22T10:28:40;8.27;;;6.25;;
79638;SDS011;69114;49.108;8.280;2023-06-22T10:31:05;7.90;;;6.00;;
79638;SDS011;69114;49.108;8.280;2023-06-22T10:33:30;9.00;;;7.13;;
79638;SDS011;69114;49.108;8.280;2023-06-22T10:35:55;9.77;;;6.60;;
79638;SDS011;69114;49.108;8.280;2023-06-22T10:38:21;9.03;;;6.20;;
79638;SDS011;69114;49.108;8.280;2023-06-22T10:40:46;9.63;;;6.38;;
79638;SDS011;69114;49.108;8.280;2023-06-22T10:43:11;9.03;;;6.87;;
79638;SDS011;69114;49.108;8.280;2023-06-22T10:45:36;10.07;;;6.47;;
79638;SDS011;69114;49.108;8.280;2023-06-22T10:48:02;10.50;;;6.50;;
79638;SDS011;69114;49.108;8.280;2023-06-22T10:50:27;11.10;;;6.33;;
79638;SDS011;69114;49.108;8.280;2023-06-22T10:52:53;11.27;;;6.67;;
79638;SDS011;69114;49.108;8.280;2023-06-22T10:55:18;9.18;;;6.20;;
79638;SDS011;69114;49.108;8.280;2023-06-22T10:57:43;7.90;;;6.03;;
79638;SDS011;69114;49.108;8.280;2023-06-22T11:00:12;9.45;;;6.57;;
79638;SDS011;69114;49.108;8.280;2023-06-22T11:02:37;10.38;;;6.13;;
79638;SDS011;69114;49.108;8.280;2023-06-22T11:05:02;11.53;;;6.53;;
79638;SDS011;69114;49.108;8.280;2023-06-22T11:07:28;8.82;;;6.10;;
79638;SDS011;69114;49.108;8.280;2023-06-22T11:09:54;8.80;;;6.03;;
79638;SDS011;69114;49.108;8.280;2023-06-22T11:12:19;8.60;;;6.05;;
79638;SDS011;69114;49.108;8.280;2023-06-22T11:14:44;7.73;;;5.90;;
79638;SDS011;69114;49.108;8.280;2023-06-22T11:17:09;11.55;;;6.25;;
79638;SDS011;69114;49.108;8.280;2023-06-22T11:19:35;9.23;;;5.93;;
79638;SDS011;69114;49.108;8.280;2023-06-22T11:22:01;10.80;;;6.10;;
79638;SDS011;69114;49.108;8.280;2023-06-22T11:24:26;9.27;;;6.33;;
79638;SDS011;69114;49.108;8.280;2023-06-22T11:26:51;9.97;;;6.07;;
79638;SDS011;69114;49.108;8.280;2023-06-22T11:29:17;11.00;;;6.40;;
79638;SDS011;69114;49.108;8.280;2023-06-22T11:31:42;8.13;;;6.05;;
79638;SDS011;69114;49.108;8.280;2023-06-22T11:34:08;8.80;;;6.25;;
79638;SDS011;69114;49.108;8.280;2023-06-22T11:36:33;9.90;;;6.07;;
79638;SDS011;69114;49.108;8.280;2023-06-22T11:39:00;8.50;;;5.90;;
79638;SDS011;69114;49.108;8.280;2023-06-22T11:41:26;11.48;;;6.20;;
79638;SDS011;69114;49.108;8.280;2023-06-22T11:43:51;9.43;;;5.67;;
79638;SDS011;69114;49.108;8.280;2023-06-22T11:46:16;10.97;;;6.33;;
79638;SDS011;69114;49.108;8.280;2023-06-22T11:48:41;12.80;;;6.40;;
79638;SDS011;69114;49.108;8.280;2023-06-22T11:51:06;7.53;;;5.67;;
79638;SDS011;69114;49.108;8.280;2023-06-22T11:53:33;10.85;;;6.32;;
79638;SDS011;69114;49.108;8.280;2023-06-22T11:55:59;9.77;;;6.57;;
79638;SDS011;69114;49.108;8.280;2023-06-22T11:58:25;10.90;;;6.22;;
79638;SDS011;69114;49.108;8.280;2023-06-22T12:00:50;9.73;;;6.13;;
79638;SDS011;69114;49.108;8.280;2023-06-22T12:03:16;9.50;;;5.78;;
79638;SDS011;69114;49.108;8.280;2023-06-22T12:05:42;9.67;;;6.23;;
79638;SDS011;69114;49.108;8.280;2023-06-22T12:08:07;11.60;;;6.90;;
79638;SDS011;69114;49.108;8.280;2023-06-22T12:10:32;9.43;;;6.30;;
79638;SDS011;69114;49.108;8.280;2023-06-22T12:12:57;13.27;;;6.07;;
79638;SDS011;69114;49.108;8.280;2023-06-22T12:15:24;9.65;;;5.80;;
79638;SDS011;69114;49.108;8.280;2023-06-22T12:17:50;13.05;;;7.15;;
79638;SDS011;69114;49.108;8.280;2023-06-22T12:20:15;9.60;;;6.23;;
79638;SDS011;69114;49.108;8.280;2023-06-22T12:22:40;10.50;;;6.72;;
79638;SDS011;69114;49.108;8.280;2023-06-22T12:25:06;8.02;;;6.07;;
79638;SDS011;69114;49.108;8.280;2023-06-22T12:27:32;12.10;;;6.72;;
79638;SDS011;69114;49.108;8.280;2023-06-22T12:29:57;11.77;;;7.13;;
79638;SDS011;69114;49.108;8.280;2023-06-22T12:32:22;10.70;;;6.30;;
79638;SDS011;69114;49.108;8.280;2023-06-22T12:34:47;10.77;;;6.83;;
79638;SDS011;69114;49.108;8.280;2023-06-22T12:37:13;11.10;;;6.63;;
79638;SDS011;69114;49.108;8.280;2023-06-22T12:39:40;8.77;;;6.30;;
79638;SDS011;69114;49.108;8.280;2023-06-22T12:42:05;9.35;;;6.43;;
79638;SDS011;69114;49.108;8.280;2023-06-22T12:44:33;9.02;;;7.25;;
79638;SDS011;69114;49.108;8.280;2023-06-22T12:46:58;10.83;;;6.93;;
79638;SDS011;69114;49.108;8.280;2023-06-22T12:49:26;10.80;;;6.73;;
79638;SDS011;69114;49.108;8.280;2023-06-22T12:51:52;11.55;;;6.85;;
79638;SDS011;69114;49.108;8.280;2023-06-22T12:54:17;13.87;;;6.80;;
79638;SDS011;69114;49.108;8.280;2023-06-22T12:56:42;11.73;;;6.60;;
79638;SDS011;69114;49.108;8.280;2023-06-22T12:59:10;10.35;;;6.78;;
79638;SDS011;69114;49.108;8.280;2023-06-22T13:01:35;10.32;;;6.50;;
79638;SDS011;69114;49.108;8.280;2023-06-22T13:04:00;8.33;;;6.20;;
79638;SDS011;69114;49.108;8.280;2023-06-22T13:06:25;12.97;;;6.63;;
79638;SDS011;69114;49.108;8.280;2023-06-22T13:08:51;11.17;;;6.17;;
79638;SDS011;69114;49.108;8.280;2023-06-22T13:11:16;11.57;;;6.10;;
79638;SDS011;69114;49.108;8.280;2023-06-22T13:13:41;10.13;;;6.90;;
79638;SDS011;69114;49.108;8.280;2023-06-22T13:16:07;12.33;;;6.90;;
79638;SDS011;69114;49.108;8.280;2023-06-22T13:18:32;12.48;;;7.35;;
79638;SDS011;69114;49.108;8.280;2023-06-22T13:20:59;9.07;;;6.78;;
79638;SDS011;69114;49.108;8.280;2023-06-22T13:23:25;8.65;;;6.43;;
79638;SDS011;69114;49.108;8.280;2023-06-22T13:25:50;12.07;;;6.65;;
79638;SDS011;69114;49.108;8.280;2023-06-22T13:28:15;10.30;;;7.40;;
79638;SDS011;69114;49.108;8.280;2023-06-22T13:30:41;11.05;;;6.78;;
79638;SDS011;69114;49.108;8.280;2023-06-22T13:33:06;10.15;;;6.80;;
79638;SDS011;69114;49.108;8.280;2023-06-22T13:35:31;9.97;;;6.70;;
79638;SDS011;69114;49.108;8.280;2023-06-22T13:37:57;10.23;;;6.57;;
79638;SDS011;69114;49.108;8.280;2023-06-22T13:40:22;11.17;;;6.17;;
79638;SDS011;69114;49.108;8.280;2023-06-22T13:42:47;10.73;;;6.22;;
79638;SDS011;69114;49.108;8.280;2023-06-22T13:45:12;11.87;;;6.37;;
79638;SDS011;69114;49.108;8.280;2023-06-22T13:47:38;9.80;;;5.97;;
79638;SDS011;69114;49.108;8.280;2023-06-22T13:50:03;10.97;;;6.57;;
79638;SDS011;69114;49.108;8.280;2023-06-22T13:52:28;13.02;;;6.72;;
79638;SDS011;69114;49.108;8.280;2023-06-22T13:54:53;12.37;;;6.00;;
79638;SDS011;69114;49.108;8.280;2023-06-22T13:57:19;11.88;;;6.18;;
79638;SDS011;69114;49.108;8.280;2023-06-22T13:59:44;10.67;;;6.77;;
79638;SDS011;69114;49.108;8.280;2023-06-22T14:02:09;11.40;;;5.80;;
79638;SDS011;69114;49.108;8.280;2023-06-22T14:04:34;10.30;;;5.83;;
79638;SDS011;69114;49.108;8.280;2023-06-22T14:06:59;11.47;;;6.30;;
79638;SDS011;69114;49.108;8.280;2023-06-22T14:09:25;12.70;;;6.20;;
79638;SDS011;69114;49.108;8.280;2023-06-22T14:11:50;9.25;;;6.05;;
79638;SDS011;69114;49.108;8.280;2023-06-22T14:14:15;12.37;;;5.90;;
79638;SDS011;69114;49.108;8.280;2023-06-22T14:16:41;10.70;;;6.43;;
79638;SDS011;69114;49.108;8.280;2023-06-22T14:19:06;11.13;;;6.07;;
79638;SDS011;69114;49.108;8.280;2023-06-22T14:21:31;11.60;;;6.20;;
79638;SDS011;69114;49.108;8.280;2023-06-22T14:23:56;11.60;;;6.17;;
79638;SDS011;69114;49.108;8.280;2023-06-22T14:26:21;13.70;;;7.70;;
79638;SDS011;69114;49.108;8.280;2023-06-22T14:28:47;16.33;;;9.05;;
79638;SDS011;69114;49.108;8.280;2023-06-22T14:31:15;13.73;;;8.48;;
79638;SDS011;69114;49.108;8.280;2023-06-22T14:33:40;16.10;;;8.40;;